Time,TemperatureF,DewpointF,PressureIn,WindDirection,WindDirectionDegrees,WindSpeedMPH,WindSpeedGustMPH,Humidity,HourlyPrecipIn,Conditions,Clouds,dailyrainin,SolarRadiationWatts/m^2,SoftwareType,DateUTC
2013-09-23 00:05:00,47.0,44.0,-100.00,NW,310,4.0,7.0,89,0.00,,,0.01,0.000000,,2013-09-23 04:05:00,
2013-09-23 00:14:00,47.0,44.0,-100.00,NW,310,4.0,7.0,89,0.00,,,0.01,0.000000,,2013-09-23 04:14:00,
2013-09-23 00:43:00,45.0,43.0,-100.00,NW,313,4.0,7.0,94,0.00,,,0.01,0.000000,,2013-09-23 04:43:00,
2013-09-23 00:54:00,45.0,43.0,-100.00,NW,313,4.0,7.0,94,0.00,,,0.01,0.000000,,2013-09-23 04:54:00,
2013-09-23 01:03:00,45.0,43.0,-100.00,NW,313,4.0,7.0,94,0.00,,,0.01,0.000000,,2013-09-23 05:03:00,
2013-09-23 01:12:00,45.0,43.0,-100.00,NW,313,4.0,7.0,94,0.00,,,0.01,0.000000,,2013-09-23 05:12:00,
2013-09-23 01:43:00,45.0,43.0,-100.00,NW,313,4.0,7.0,94,0.00,,,0.01,0.000000,,2013-09-23 05:43:00,
2013-09-23 01:53:00,45.0,43.0,-100.00,NW,313,4.0,7.0,94,0.00,,,0.01,0.000000,,2013-09-23 05:53:00,
2013-09-23 02:02:00,45.0,43.0,-100.00,NW,313,4.0,7.0,94,0.00,,,0.01,0.000000,,2013-09-23 06:02:00,
2013-09-23 02:13:00,45.0,43.0,-100.00,NW,313,4.0,7.0,94,0.00,,,0.01,0.000000,,2013-09-23 06:13:00,
2013-09-23 02:42:00,44.0,43.0,-100.00,NW,313,4.0,8.0,96,0.00,,,0.01,0.000000,,2013-09-23 06:42:00,
2013-09-23 02:52:00,44.0,43.0,-100.00,NW,313,4.0,8.0,96,0.00,,,0.01,0.000000,,2013-09-23 06:52:00,
2013-09-23 03:01:00,44.0,43.0,-100.00,NW,313,4.0,8.0,96,0.00,,,0.01,0.000000,,2013-09-23 07:01:00,
2013-09-23 03:12:00,44.0,43.0,-100.00,NW,313,4.0,8.0,96,0.00,,,0.01,0.000000,,2013-09-23 07:12:00,
2013-09-23 03:42:00,43.0,42.0,-100.00,NW,313,3.0,9.0,98,0.00,,,0.00,0.000000,,2013-09-23 07:42:00,
2013-09-23 03:52:00,43.0,42.0,-100.00,NW,313,3.0,9.0,98,0.00,,,0.00,0.000000,,2013-09-23 07:52:00,
2013-09-23 04:02:00,43.0,42.0,-100.00,NW,313,3.0,9.0,98,0.00,,,0.00,0.000000,,2013-09-23 08:02:00,
2013-09-23 04:11:00,43.0,42.0,-100.00,NW,313,3.0,9.0,98,0.00,,,0.00,0.000000,,2013-09-23 08:11:00,
2013-09-23 04:42:00,43.0,41.0,-100.00,NW,310,4.0,9.0,94,0.00,,,0.00,0.000000,,2013-09-23 08:42:00,
2013-09-23 04:52:00,43.0,41.0,-100.00,NW,310,4.0,9.0,94,0.00,,,0.00,0.000000,,2013-09-23 08:52:00,
2013-09-23 05:02:00,43.0,41.0,-100.00,NW,310,4.0,9.0,94,0.00,,,0.00,0.000000,,2013-09-23 09:02:00,
2013-09-23 05:11:00,43.0,41.0,-100.00,NW,310,4.0,9.0,94,0.00,,,0.00,0.000000,,2013-09-23 09:11:00,
2013-09-23 05:43:00,42.0,41.0,-100.00,NW,309,3.0,6.0,96,0.00,,,0.00,0.000000,,2013-09-23 09:43:00,
2013-09-23 05:53:00,42.0,41.0,-100.00,NW,309,3.0,6.0,96,0.00,,,0.00,0.000000,,2013-09-23 09:53:00,
2013-09-23 06:03:00,42.0,41.0,-100.00,NW,309,3.0,6.0,96,0.00,,,0.00,0.000000,,2013-09-23 10:03:00,
2013-09-23 06:13:00,42.0,41.0,-100.00,NW,309,3.0,6.0,96,0.00,,,0.00,0.000000,,2013-09-23 10:13:00,
2013-09-23 06:43:00,43.0,42.0,-100.00,NW,308,3.0,6.0,95,0.00,,,0.00,0.000000,,2013-09-23 10:43:00,
2013-09-23 06:53:00,43.0,42.0,-100.00,NW,308,3.0,6.0,95,0.00,,,0.00,0.000000,,2013-09-23 10:53:00,
2013-09-23 07:03:00,43.0,42.0,-100.00,NW,308,3.0,6.0,95,0.00,,,0.00,0.000000,,2013-09-23 11:03:00,
2013-09-23 07:12:00,43.0,42.0,-100.00,NW,308,3.0,6.0,95,0.00,,,0.00,0.000000,,2013-09-23 11:12:00,
2013-09-23 07:42:00,43.0,42.0,-100.00,NW,316,3.0,6.0,95,0.00,,,0.00,0.000000,,2013-09-23 11:42:00,
2013-09-23 07:52:00,43.0,42.0,-100.00,NW,316,3.0,6.0,95,0.00,,,0.00,0.000000,,2013-09-23 11:52:00,
2013-09-23 08:02:00,43.0,42.0,-100.00,NW,316,3.0,6.0,95,0.00,,,0.00,0.000000,,2013-09-23 12:02:00,
2013-09-23 08:11:00,43.0,42.0,-100.00,NW,316,3.0,6.0,95,0.00,,,0.00,0.000000,,2013-09-23 12:11:00,
2013-09-23 08:42:00,44.0,42.0,-100.00,NW,311,2.0,5.0,94,0.00,,,0.00,16.000000,,2013-09-23 12:42:00,
2013-09-23 08:52:00,44.0,42.0,-100.00,NW,311,2.0,5.0,94,0.00,,,0.00,16.000000,,2013-09-23 12:52:00,
2013-09-23 09:02:00,44.0,42.0,-100.00,NW,311,2.0,5.0,94,0.00,,,0.00,16.000000,,2013-09-23 13:02:00,
2013-09-23 09:11:00,44.0,42.0,-100.00,NW,311,2.0,5.0,94,0.00,,,0.00,16.000000,,2013-09-23 13:11:00,
2013-09-23 09:42:00,45.0,43.0,-100.00,NW,314,2.0,5.0,92,0.00,,,0.00,55.000000,,2013-09-23 13:42:00,
2013-09-23 09:52:00,45.0,43.0,-100.00,NW,314,2.0,5.0,92,0.00,,,0.00,55.000000,,2013-09-23 13:52:00,
2013-09-23 10:02:00,45.0,43.0,-100.00,NW,314,2.0,5.0,92,0.00,,,0.00,55.000000,,2013-09-23 14:02:00,
2013-09-23 10:12:00,45.0,43.0,-100.00,NW,314,2.0,5.0,92,0.00,,,0.00,55.000000,,2013-09-23 14:12:00,
2013-09-23 10:43:00,46.0,40.0,-100.00,NW,321,3.0,6.0,80,0.00,,,0.00,157.000000,,2013-09-23 14:43:00,
2013-09-23 10:52:00,46.0,40.0,-100.00,NW,321,3.0,6.0,80,0.00,,,0.00,157.000000,,2013-09-23 14:52:00,
2013-09-23 11:02:00,46.0,40.0,-100.00,NW,321,3.0,6.0,80,0.00,,,0.00,157.000000,,2013-09-23 15:02:00,
2013-09-23 11:12:00,46.0,40.0,-100.00,NW,321,3.0,6.0,80,0.00,,,0.00,157.000000,,2013-09-23 15:12:00,
2013-09-23 11:43:00,49.0,41.0,-100.00,NNW,331,3.0,7.0,74,0.00,,,0.00,236.000000,,2013-09-23 15:43:00,
2013-09-23 11:54:00,49.0,41.0,-100.00,NNW,331,3.0,7.0,74,0.00,,,0.00,236.000000,,2013-09-23 15:54:00,
2013-09-23 12:04:00,49.0,41.0,-100.00,NNW,331,3.0,7.0,74,0.00,,,0.00,236.000000,,2013-09-23 16:04:00,
2013-09-23 12:12:00,49.0,41.0,-100.00,NNW,331,3.0,7.0,74,0.00,,,0.00,236.000000,,2013-09-23 16:12:00,
2013-09-23 12:43:00,50.0,42.0,-100.00,WNW,303,3.0,7.0,74,0.00,,,0.00,256.000000,,2013-09-23 16:43:00,
2013-09-23 12:53:00,50.0,42.0,-100.00,WNW,303,3.0,7.0,74,0.00,,,0.00,256.000000,,2013-09-23 16:53:00,
2013-09-23 13:03:00,50.0,42.0,-100.00,WNW,303,3.0,7.0,74,0.00,,,0.00,256.000000,,2013-09-23 17:03:00,
2013-09-23 13:12:00,50.0,42.0,-100.00,WNW,303,3.0,7.0,74,0.00,,,0.00,256.000000,,2013-09-23 17:12:00,
2013-09-23 13:42:00,54.0,44.0,-100.00,NW,310,3.0,7.0,70,0.00,,,0.00,339.000000,,2013-09-23 17:42:00,
2013-09-23 13:52:00,54.0,44.0,-100.00,NW,310,3.0,7.0,70,0.00,,,0.00,339.000000,,2013-09-23 17:52:00,
2013-09-23 14:02:00,54.0,44.0,-100.00,NW,310,3.0,7.0,70,0.00,,,0.00,339.000000,,2013-09-23 18:02:00,
2013-09-23 14:13:00,54.0,44.0,-100.00,NW,310,3.0,7.0,70,0.00,,,0.00,339.000000,,2013-09-23 18:13:00,
2013-09-23 14:42:00,58.0,44.0,-100.00,NW,309,4.0,10.0,59,0.00,,,0.00,582.000000,,2013-09-23 18:42:00,
2013-09-23 14:52:00,58.0,44.0,-100.00,NW,309,4.0,10.0,59,0.00,,,0.00,582.000000,,2013-09-23 18:52:00,
2013-09-23 15:02:00,58.0,44.0,-100.00,NW,309,4.0,10.0,59,0.00,,,0.00,582.000000,,2013-09-23 19:02:00,
2013-09-23 15:12:00,58.0,44.0,-100.00,NW,309,4.0,10.0,59,0.00,,,0.00,582.000000,,2013-09-23 19:12:00,
2013-09-23 15:42:00,60.0,45.0,-100.00,NW,310,3.0,7.0,57,0.00,,,0.00,624.000000,,2013-09-23 19:42:00,
2013-09-23 15:53:00,60.0,45.0,-100.00,NW,310,3.0,7.0,57,0.00,,,0.00,624.000000,,2013-09-23 19:53:00,
2013-09-23 16:03:00,60.0,45.0,-100.00,NW,310,3.0,7.0,57,0.00,,,0.00,624.000000,,2013-09-23 20:03:00,
2013-09-23 16:12:00,60.0,45.0,-100.00,NW,310,3.0,7.0,57,0.00,,,0.00,624.000000,,2013-09-23 20:12:00,
2013-09-23 16:42:00,60.0,45.0,-100.00,NW,316,3.0,9.0,58,0.00,,,0.00,527.000000,,2013-09-23 20:42:00,
2013-09-23 16:52:00,60.0,45.0,-100.00,NW,316,3.0,9.0,58,0.00,,,0.00,527.000000,,2013-09-23 20:52:00,
2013-09-23 17:02:00,60.0,45.0,-100.00,NW,316,3.0,9.0,58,0.00,,,0.00,527.000000,,2013-09-23 21:02:00,
2013-09-23 17:12:00,60.0,45.0,-100.00,NW,316,3.0,9.0,58,0.00,,,0.00,527.000000,,2013-09-23 21:12:00,
2013-09-23 17:44:00,57.0,44.0,-100.00,NW,307,3.0,9.0,61,0.00,,,0.00,385.000000,,2013-09-23 21:44:00,
2013-09-23 17:54:00,57.0,44.0,-100.00,NW,307,3.0,9.0,61,0.00,,,0.00,385.000000,,2013-09-23 21:54:00,
2013-09-23 18:04:00,57.0,44.0,-100.00,NW,307,3.0,9.0,61,0.00,,,0.00,385.000000,,2013-09-23 22:04:00,
2013-09-23 18:14:00,57.0,44.0,-100.00,NW,307,3.0,9.0,61,0.00,,,0.00,385.000000,,2013-09-23 22:14:00,
2013-09-23 18:43:00,51.0,43.0,-100.00,WNW,299,3.0,7.0,75,0.00,,,0.00,69.000000,,2013-09-23 22:43:00,
2013-09-23 18:54:00,51.0,43.0,-100.00,WNW,299,3.0,7.0,75,0.00,,,0.00,69.000000,,2013-09-23 22:54:00,
2013-09-23 19:03:00,51.0,43.0,-100.00,WNW,299,3.0,7.0,75,0.00,,,0.00,69.000000,,2013-09-23 23:03:00,
2013-09-23 19:12:00,51.0,43.0,-100.00,WNW,299,3.0,7.0,75,0.00,,,0.00,69.000000,,2013-09-23 23:12:00,
2013-09-23 19:42:00,48.0,43.0,-100.00,NW,306,3.0,7.0,82,0.00,,,0.00,12.000000,,2013-09-23 23:42:00,
2013-09-23 19:54:00,48.0,43.0,-100.00,NW,306,3.0,7.0,82,0.00,,,0.00,12.000000,,2013-09-23 23:54:00,
2013-09-23 20:02:00,48.0,43.0,-100.00,NW,306,3.0,7.0,82,0.00,,,0.00,12.000000,,2013-09-24 00:02:00,
2013-09-23 20:12:00,48.0,43.0,-100.00,NW,306,3.0,7.0,82,0.00,,,0.00,12.000000,,2013-09-24 00:12:00,
2013-09-23 20:43:00,46.0,41.0,-100.00,NW,313,3.0,9.0,84,0.00,,,0.00,0.000000,,2013-09-24 00:43:00,
2013-09-23 20:52:00,46.0,41.0,-100.00,NW,313,3.0,9.0,84,0.00,,,0.00,0.000000,,2013-09-24 00:52:00,
2013-09-23 21:02:00,46.0,41.0,-100.00,NW,313,3.0,9.0,84,0.00,,,0.00,0.000000,,2013-09-24 01:02:00,
2013-09-23 21:12:00,46.0,41.0,-100.00,NW,313,3.0,9.0,84,0.00,,,0.00,0.000000,,2013-09-24 01:12:00,
2013-09-23 21:43:00,44.0,41.0,-100.00,NW,311,3.0,7.0,89,0.00,,,-99.99,0.000000,,2013-09-24 01:43:00,
2013-09-23 21:52:00,44.0,41.0,-100.00,NW,311,3.0,7.0,89,0.00,,,-99.99,0.000000,,2013-09-24 01:52:00,
2013-09-23 22:02:00,44.0,41.0,-100.00,NW,311,3.0,7.0,89,0.00,,,-99.99,0.000000,,2013-09-24 02:02:00,
2013-09-23 22:12:00,44.0,41.0,-100.00,NW,311,3.0,7.0,89,0.00,,,-99.99,0.000000,,2013-09-24 02:12:00,
2013-09-23 22:42:00,43.0,41.0,-100.00,WNW,303,3.0,6.0,92,0.00,,,0.00,0.000000,,2013-09-24 02:42:00,
2013-09-23 22:52:00,43.0,41.0,-100.00,WNW,303,3.0,6.0,92,0.00,,,0.00,0.000000,,2013-09-24 02:52:00,
2013-09-23 23:03:00,43.0,41.0,-100.00,WNW,303,3.0,6.0,92,0.00,,,0.00,0.000000,,2013-09-24 03:03:00,
2013-09-23 23:12:00,43.0,41.0,-100.00,WNW,303,3.0,6.0,92,0.00,,,0.00,0.000000,,2013-09-24 03:12:00,
2013-09-23 23:45:00,42.0,38.0,-100.00,ENE,74,2.0,6.0,86,0.00,,,0.00,0.000000,,2013-09-24 03:45:00,
2013-09-23 23:55:00,42.0,38.0,-100.00,ENE,74,2.0,6.0,86,0.00,,,0.00,0.000000,,2013-09-24 03:55:00,